sensor_id;sensor_type;location;lat;lon;timestamp;temperature;humidity
76751;SHT31;65216;51.090;-115.352;2024-01-30T00:01:58;23.13;30.83
76751;SHT31;65216;51.090;-115.352;2024-01-30T00:04:25;23.13;30.90
76751;SHT31;65216;51.090;-115.352;2024-01-30T00:06:51;23.13;30.85
76751;SHT31;65216;51.090;-115.352;2024-01-30T00:09:18;23.15;30.87
76751;SHT31;65216;51.090;-115.352;2024-01-30T00:11:45;23.16;30.82
76751;SHT31;65216;51.090;-115.352;2024-01-30T00:14:15;23.17;30.88
76751;SHT31;65216;51.090;-115.352;2024-01-30T00:16:41;23.17;30.99
76751;SHT31;65216;51.090;-115.352;2024-01-30T00:19:08;23.19;31.18
76751;SHT31;65216;51.090;-115.352;2024-01-30T00:21:35;23.19;30.94
76751;SHT31;65216;51.090;-115.352;2024-01-30T00:24:02;23.21;31.08
76751;SHT31;65216;51.090;-115.352;2024-01-30T00:26:29;23.21;31.16
76751;SHT31;65216;51.090;-115.352;2024-01-30T00:28:56;23.21;31.11
76751;SHT31;65216;51.090;-115.352;2024-01-30T00:31:24;23.21;31.04
76751;SHT31;65216;51.090;-115.352;2024-01-30T00:33:57;23.19;30.99
76751;SHT31;65216;51.090;-115.352;2024-01-30T00:36:24;23.19;31.01
76751;SHT31;65216;51.090;-115.352;2024-01-30T00:38:51;23.19;31.09
76751;SHT31;65216;51.090;-115.352;2024-01-30T00:41:18;23.19;31.11
76751;SHT31;65216;51.090;-115.352;2024-01-30T00:43:45;23.18;31.17
76751;SHT31;65216;51.090;-115.352;2024-01-30T00:46:12;23.16;31.10
76751;SHT31;65216;51.090;-115.352;2024-01-30T00:48:39;23.16;31.12
76751;SHT31;65216;51.090;-115.352;2024-01-30T00:51:05;23.16;31.10
76751;SHT31;65216;51.090;-115.352;2024-01-30T00:53:33;23.15;31.11
76751;SHT31;65216;51.090;-115.352;2024-01-30T00:56:00;23.14;31.12
76751;SHT31;65216;51.090;-115.352;2024-01-30T00:58:27;23.16;31.17
76751;SHT31;65216;51.090;-115.352;2024-01-30T01:00:53;23.17;31.26
76751;SHT31;65216;51.090;-115.352;2024-01-30T01:03:20;23.17;31.24
76751;SHT31;65216;51.090;-115.352;2024-01-30T01:05:47;23.18;31.30
76751;SHT31;65216;51.090;-115.352;2024-01-30T01:08:14;23.19;31.34
76751;SHT31;65216;51.090;-115.352;2024-01-30T01:10:45;23.20;31.44
76751;SHT31;65216;51.090;-115.352;2024-01-30T01:13:12;23.19;31.36
76751;SHT31;65216;51.090;-115.352;2024-01-30T01:15:39;23.20;31.42
76751;SHT31;65216;51.090;-115.352;2024-01-30T01:18:06;23.21;31.45
76751;SHT31;65216;51.090;-115.352;2024-01-30T01:20:34;23.19;31.53
76751;SHT31;65216;51.090;-115.352;2024-01-30T01:23:00;23.18;31.51
76751;SHT31;65216;51.090;-115.352;2024-01-30T01:25:29;23.16;31.50
76751;SHT31;65216;51.090;-115.352;2024-01-30T01:27:55;23.15;31.52
76751;SHT31;65216;51.090;-115.352;2024-01-30T01:30:24;23.14;31.58
76751;SHT31;65216;51.090;-115.352;2024-01-30T01:32:52;23.13;31.70
76751;SHT31;65216;51.090;-115.352;2024-01-30T01:35:25;23.13;31.67
76751;SHT31;65216;51.090;-115.352;2024-01-30T01:37:53;23.12;31.63
76751;SHT31;65216;51.090;-115.352;2024-01-30T01:40:22;23.10;31.58
76751;SHT31;65216;51.090;-115.352;2024-01-30T01:42:52;23.09;31.63
76751;SHT31;65216;51.090;-115.352;2024-01-30T01:45:21;23.08;31.61
76751;SHT31;65216;51.090;-115.352;2024-01-30T01:47:52;23.07;31.59
76751;SHT31;65216;51.090;-115.352;2024-01-30T01:50:22;23.06;31.53
76751;SHT31;65216;51.090;-115.352;2024-01-30T01:52:53;23.05;31.56
76751;SHT31;65216;51.090;-115.352;2024-01-30T01:55:22;23.05;31.56
76751;SHT31;65216;51.090;-115.352;2024-01-30T01:57:52;23.07;31.52
76751;SHT31;65216;51.090;-115.352;2024-01-30T02:00:20;23.06;31.55
76751;SHT31;65216;51.090;-115.352;2024-01-30T02:02:48;23.05;31.54
76751;SHT31;65216;51.090;-115.352;2024-01-30T02:05:16;23.07;31.61
76751;SHT31;65216;51.090;-115.352;2024-01-30T02:07:44;23.06;31.58
76751;SHT31;65216;51.090;-115.352;2024-01-30T02:10:11;23.08;31.66
76751;SHT31;65216;51.090;-115.352;2024-01-30T02:12:40;23.07;31.69
76751;SHT31;65216;51.090;-115.352;2024-01-30T02:15:07;23.05;31.66
76751;SHT31;65216;51.090;-115.352;2024-01-30T02:17:34;23.03;31.67
76751;SHT31;65216;51.090;-115.352;2024-01-30T02:20:01;23.05;31.69
76751;SHT31;65216;51.090;-115.352;2024-01-30T02:22:28;23.06;31.72
76751;SHT31;65216;51.090;-115.352;2024-01-30T02:24:57;23.05;31.73
76751;SHT31;65216;51.090;-115.352;2024-01-30T02:27:24;23.06;31.70
76751;SHT31;65216;51.090;-115.352;2024-01-30T02:29:51;23.07;31.73
76751;SHT31;65216;51.090;-115.352;2024-01-30T02:32:18;23.06;31.74
76751;SHT31;65216;51.090;-115.352;2024-01-30T02:34:45;23.05;31.82
76751;SHT31;65216;51.090;-115.352;2024-01-30T02:37:11;23.03;32.05
76751;SHT31;65216;51.090;-115.352;2024-01-30T02:39:38;23.04;32.11
76751;SHT31;65216;51.090;-115.352;2024-01-30T02:42:05;23.03;32.19
76751;SHT31;65216;51.090;-115.352;2024-01-30T02:44:32;23.03;32.17
76751;SHT31;65216;51.090;-115.352;2024-01-30T02:46:59;23.03;32.00
76751;SHT31;65216;51.090;-115.352;2024-01-30T02:49:26;23.01;32.03
76751;SHT31;65216;51.090;-115.352;2024-01-30T02:51:53;23.01;31.97
76751;SHT31;65216;51.090;-115.352;2024-01-30T02:54:22;23.02;31.97
76751;SHT31;65216;51.090;-115.352;2024-01-30T02:56:48;23.02;32.00
76751;SHT31;65216;51.090;-115.352;2024-01-30T02:59:15;23.00;32.19
76751;SHT31;65216;51.090;-115.352;2024-01-30T03:01:43;23.03;32.24
76751;SHT31;65216;51.090;-115.352;2024-01-30T03:04:11;23.02;32.01
76751;SHT31;65216;51.090;-115.352;2024-01-30T03:06:44;23.00;32.05
76751;SHT31;65216;51.090;-115.352;2024-01-30T03:09:15;23.00;32.05
76751;SHT31;65216;51.090;-115.352;2024-01-30T03:11:45;23.00;32.03
76751;SHT31;65216;51.090;-115.352;2024-01-30T03:14:13;22.98;32.02
76751;SHT31;65216;51.090;-115.352;2024-01-30T03:16:43;22.96;32.00
76751;SHT31;65216;51.090;-115.352;2024-01-30T03:19:10;22.96;32.00
76751;SHT31;65216;51.090;-115.352;2024-01-30T03:21:37;22.96;31.99
76751;SHT31;65216;51.090;-115.352;2024-01-30T03:24:03;22.95;31.94
76751;SHT31;65216;51.090;-115.352;2024-01-30T03:26:31;22.92;31.96
76751;SHT31;65216;51.090;-115.352;2024-01-30T03:28:58;22.92;31.96
76751;SHT31;65216;51.090;-115.352;2024-01-30T03:31:27;22.93;31.95
76751;SHT31;65216;51.090;-115.352;2024-01-30T03:33:54;22.92;31.84
76751;SHT31;65216;51.090;-115.352;2024-01-30T03:36:20;22.91;31.83
76751;SHT31;65216;51.090;-115.352;2024-01-30T03:38:47;22.91;31.73
76751;SHT31;65216;51.090;-115.352;2024-01-30T03:41:14;22.92;31.66
76751;SHT31;65216;51.090;-115.352;2024-01-30T03:43:43;22.94;31.60
76751;SHT31;65216;51.090;-115.352;2024-01-30T03:46:12;22.93;31.47
76751;SHT31;65216;51.090;-115.352;2024-01-30T03:48:39;22.94;31.41
76751;SHT31;65216;51.090;-115.352;2024-01-30T03:51:09;22.94;31.30
76751;SHT31;65216;51.090;-115.352;2024-01-30T03:53:40;22.93;31.30
76751;SHT31;65216;51.090;-115.352;2024-01-30T03:56:11;22.92;31.29
76751;SHT31;65216;51.090;-115.352;2024-01-30T03:58:39;22.89;31.30
76751;SHT31;65216;51.090;-115.352;2024-01-30T04:01:06;22.87;31.30
76751;SHT31;65216;51.090;-115.352;2024-01-30T04:03:40;22.86;31.21
76751;SHT31;65216;51.090;-115.352;2024-01-30T04:06:09;22.86;31.20
76751;SHT31;65216;51.090;-115.352;2024-01-30T04:08:38;22.88;31.28
76751;SHT31;65216;51.090;-115.352;2024-01-30T04:11:05;22.86;31.24
76751;SHT31;65216;51.090;-115.352;2024-01-30T04:13:33;22.84;31.41
76751;SHT31;65216;51.090;-115.352;2024-01-30T04:16:00;22.83;31.34
76751;SHT31;65216;51.090;-115.352;2024-01-30T04:18:28;22.82;31.32
76751;SHT31;65216;51.090;-115.352;2024-01-30T04:20:56;22.82;31.32
76751;SHT31;65216;51.090;-115.352;2024-01-30T04:23:23;22.81;31.20
76751;SHT31;65216;51.090;-115.352;2024-01-30T04:25:50;22.79;31.14
76751;SHT31;65216;51.090;-115.352;2024-01-30T04:28:17;22.79;31.14
76751;SHT31;65216;51.090;-115.352;2024-01-30T04:30:44;22.79;31.04
76751;SHT31;65216;51.090;-115.352;2024-01-30T04:33:11;22.78;31.00
76751;SHT31;65216;51.090;-115.352;2024-01-30T04:35:38;22.77;30.97
76751;SHT31;65216;51.090;-115.352;2024-01-30T04:38:06;22.76;31.00
76751;SHT31;65216;51.090;-115.352;2024-01-30T04:40:33;22.74;30.90
76751;SHT31;65216;51.090;-115.352;2024-01-30T04:43:00;22.73;30.82
76751;SHT31;65216;51.090;-115.352;2024-01-30T04:45:27;22.73;30.78
76751;SHT31;65216;51.090;-115.352;2024-01-30T04:47:54;22.70;30.81
76751;SHT31;65216;51.090;-115.352;2024-01-30T04:50:21;22.70;30.72
76751;SHT31;65216;51.090;-115.352;2024-01-30T04:52:49;22.67;30.71
76751;SHT31;65216;51.090;-115.352;2024-01-30T04:55:15;22.64;30.60
76751;SHT31;65216;51.090;-115.352;2024-01-30T04:57:42;22.64;30.61
76751;SHT31;65216;51.090;-115.352;2024-01-30T05:00:09;22.60;30.56
76751;SHT31;65216;51.090;-115.352;2024-01-30T05:02:36;22.58;30.56
76751;SHT31;65216;51.090;-115.352;2024-01-30T05:05:03;22.57;30.50
76751;SHT31;65216;51.090;-115.352;2024-01-30T05:07:31;22.56;30.44
76751;SHT31;65216;51.090;-115.352;2024-01-30T05:09:58;22.56;30.34
76751;SHT31;65216;51.090;-115.352;2024-01-30T05:12:25;22.53;30.30
76751;SHT31;65216;51.090;-115.352;2024-01-30T05:14:52;22.53;30.30
76751;SHT31;65216;51.090;-115.352;2024-01-30T05:17:19;22.52;30.22
76751;SHT31;65216;51.090;-115.352;2024-01-30T05:19:48;22.55;30.10
76751;SHT31;65216;51.090;-115.352;2024-01-30T05:22:16;22.53;30.01
76751;SHT31;65216;51.090;-115.352;2024-01-30T05:24:46;22.51;29.93
76751;SHT31;65216;51.090;-115.352;2024-01-30T05:27:14;22.51;29.90
76751;SHT31;65216;51.090;-115.352;2024-01-30T05:29:42;22.51;29.82
76751;SHT31;65216;51.090;-115.352;2024-01-30T05:32:11;22.49;29.78
76751;SHT31;65216;51.090;-115.352;2024-01-30T05:34:38;22.48;29.76
76751;SHT31;65216;51.090;-115.352;2024-01-30T05:37:04;22.49;29.69
76751;SHT31;65216;51.090;-115.352;2024-01-30T05:39:31;22.51;29.61
76751;SHT31;65216;51.090;-115.352;2024-01-30T05:41:58;22.51;29.61
76751;SHT31;65216;51.090;-115.352;2024-01-30T05:44:25;22.52;29.59
76751;SHT31;65216;51.090;-115.352;2024-01-30T05:46:52;22.54;29.49
76751;SHT31;65216;51.090;-115.352;2024-01-30T05:49:19;22.57;29.40
76751;SHT31;65216;51.090;-115.352;2024-01-30T05:51:46;22.57;29.37
76751;SHT31;65216;51.090;-115.352;2024-01-30T05:54:14;22.57;29.31
76751;SHT31;65216;51.090;-115.352;2024-01-30T05:56:40;22.55;29.28
76751;SHT31;65216;51.090;-115.352;2024-01-30T05:59:07;22.53;29.37
76751;SHT31;65216;51.090;-115.352;2024-01-30T06:01:34;22.52;29.27
76751;SHT31;65216;51.090;-115.352;2024-01-30T06:04:01;22.51;29.25
76751;SHT31;65216;51.090;-115.352;2024-01-30T06:06:28;22.48;29.20
76751;SHT31;65216;51.090;-115.352;2024-01-30T06:08:54;22.47;29.20
76751;SHT31;65216;51.090;-115.352;2024-01-30T06:11:21;22.47;29.21
76751;SHT31;65216;51.090;-115.352;2024-01-30T06:13:48;22.49;29.20
76751;SHT31;65216;51.090;-115.352;2024-01-30T06:16:15;22.50;29.15
76751;SHT31;65216;51.090;-115.352;2024-01-30T06:18:41;22.52;29.27
76751;SHT31;65216;51.090;-115.352;2024-01-30T06:21:08;22.53;29.44
76751;SHT31;65216;51.090;-115.352;2024-01-30T06:23:35;22.55;29.43
76751;SHT31;65216;51.090;-115.352;2024-01-30T06:26:02;22.56;29.38
76751;SHT31;65216;51.090;-115.352;2024-01-30T06:28:32;22.56;29.33
76751;SHT31;65216;51.090;-115.352;2024-01-30T06:31:00;22.55;29.31
76751;SHT31;65216;51.090;-115.352;2024-01-30T06:33:27;22.56;29.59
76751;SHT31;65216;51.090;-115.352;2024-01-30T06:35:54;22.55;29.74
76751;SHT31;65216;51.090;-115.352;2024-01-30T06:38:23;22.54;29.72
76751;SHT31;65216;51.090;-115.352;2024-01-30T06:40:50;22.52;29.66
76751;SHT31;65216;51.090;-115.352;2024-01-30T06:43:16;22.52;30.01
76751;SHT31;65216;51.090;-115.352;2024-01-30T06:45:43;22.53;30.12
76751;SHT31;65216;51.090;-115.352;2024-01-30T06:48:11;22.53;30.28
76751;SHT31;65216;51.090;-115.352;2024-01-30T06:50:38;22.54;30.01
76751;SHT31;65216;51.090;-115.352;2024-01-30T06:53:05;22.53;29.82
76751;SHT31;65216;51.090;-115.352;2024-01-30T06:55:35;22.53;29.81
76751;SHT31;65216;51.090;-115.352;2024-01-30T06:58:04;22.50;29.75
76751;SHT31;65216;51.090;-115.352;2024-01-30T07:00:32;22.48;29.67
76751;SHT31;65216;51.090;-115.352;2024-01-30T07:03:01;22.48;29.60
76751;SHT31;65216;51.090;-115.352;2024-01-30T07:05:29;22.46;29.56
76751;SHT31;65216;51.090;-115.352;2024-01-30T07:07:56;22.44;29.53
76751;SHT31;65216;51.090;-115.352;2024-01-30T07:10:23;22.42;29.50
76751;SHT31;65216;51.090;-115.352;2024-01-30T07:12:49;22.40;29.44
76751;SHT31;65216;51.090;-115.352;2024-01-30T07:15:16;22.36;29.45
76751;SHT31;65216;51.090;-115.352;2024-01-30T07:17:45;22.34;29.39
76751;SHT31;65216;51.090;-115.352;2024-01-30T07:20:12;22.33;29.32
76751;SHT31;65216;51.090;-115.352;2024-01-30T07:22:40;22.31;29.30
76751;SHT31;65216;51.090;-115.352;2024-01-30T07:25:07;22.30;29.28
76751;SHT31;65216;51.090;-115.352;2024-01-30T07:27:34;22.28;29.24
76751;SHT31;65216;51.090;-115.352;2024-01-30T07:30:02;22.25;29.20
76751;SHT31;65216;51.090;-115.352;2024-01-30T07:32:29;22.23;29.17
76751;SHT31;65216;51.090;-115.352;2024-01-30T07:34:57;22.23;29.11
76751;SHT31;65216;51.090;-115.352;2024-01-30T07:37:24;22.21;29.10
76751;SHT31;65216;51.090;-115.352;2024-01-30T07:39:50;22.18;29.10
76751;SHT31;65216;51.090;-115.352;2024-01-30T07:42:20;22.16;29.08
76751;SHT31;65216;51.090;-115.352;2024-01-30T07:44:47;22.15;29.01
76751;SHT31;65216;51.090;-115.352;2024-01-30T07:47:16;22.16;29.00
76751;SHT31;65216;51.090;-115.352;2024-01-30T07:49:45;22.15;28.99
76751;SHT31;65216;51.090;-115.352;2024-01-30T07:52:12;22.14;28.91
76751;SHT31;65216;51.090;-115.352;2024-01-30T07:54:39;22.14;28.90
76751;SHT31;65216;51.090;-115.352;2024-01-30T07:57:08;22.11;28.89
76751;SHT31;65216;51.090;-115.352;2024-01-30T07:59:37;22.10;28.82
76751;SHT31;65216;51.090;-115.352;2024-01-30T08:02:04;22.12;28.80
76751;SHT31;65216;51.090;-115.352;2024-01-30T08:04:30;22.11;28.76
76751;SHT31;65216;51.090;-115.352;2024-01-30T08:06:57;22.09;28.70
76751;SHT31;65216;51.090;-115.352;2024-01-30T08:09:24;22.09;28.70
76751;SHT31;65216;51.090;-115.352;2024-01-30T08:11:54;22.09;28.70
76751;SHT31;65216;51.090;-115.352;2024-01-30T08:14:20;22.09;28.63
76751;SHT31;65216;51.090;-115.352;2024-01-30T08:16:47;22.09;28.60
76751;SHT31;65216;51.090;-115.352;2024-01-30T08:19:17;22.08;28.57
76751;SHT31;65216;51.090;-115.352;2024-01-30T08:21:44;22.05;28.59
76751;SHT31;65216;51.090;-115.352;2024-01-30T08:24:11;22.05;28.52
76751;SHT31;65216;51.090;-115.352;2024-01-30T08:26:38;22.04;28.58
76751;SHT31;65216;51.090;-115.352;2024-01-30T08:29:05;22.00;28.57
76751;SHT31;65216;51.090;-115.352;2024-01-30T08:31:32;22.00;28.55
76751;SHT31;65216;51.090;-115.352;2024-01-30T08:33:59;22.00;28.51
76751;SHT31;65216;51.090;-115.352;2024-01-30T08:36:26;21.98;28.50
76751;SHT31;65216;51.090;-115.352;2024-01-30T08:38:52;21.97;28.50
76751;SHT31;65216;51.090;-115.352;2024-01-30T08:41:20;21.97;28.49
76751;SHT31;65216;51.090;-115.352;2024-01-30T08:43:46;21.96;28.49
76751;SHT31;65216;51.090;-115.352;2024-01-30T08:46:16;21.94;28.50
76751;SHT31;65216;51.090;-115.352;2024-01-30T08:48:45;21.94;28.48
76751;SHT31;65216;51.090;-115.352;2024-01-30T08:51:13;21.95;28.46
76751;SHT31;65216;51.090;-115.352;2024-01-30T08:53:42;21.94;28.46
76751;SHT31;65216;51.090;-115.352;2024-01-30T08:56:10;21.94;28.41
76751;SHT31;65216;51.090;-115.352;2024-01-30T08:58:37;21.94;28.40
76751;SHT31;65216;51.090;-115.352;2024-01-30T09:01:04;21.95;28.39
76751;SHT31;65216;51.090;-115.352;2024-01-30T09:03:31;21.97;28.33
76751;SHT31;65216;51.090;-115.352;2024-01-30T09:05:58;21.96;28.33
76751;SHT31;65216;51.090;-115.352;2024-01-30T09:08:27;21.96;28.29
76751;SHT31;65216;51.090;-115.352;2024-01-30T09:10:54;21.96;28.30
76751;SHT31;65216;51.090;-115.352;2024-01-30T09:13:21;21.97;28.28
76751;SHT31;65216;51.090;-115.352;2024-01-30T09:15:49;21.96;28.23
76751;SHT31;65216;51.090;-115.352;2024-01-30T09:18:16;21.96;28.24
76751;SHT31;65216;51.090;-115.352;2024-01-30T09:20:43;21.97;28.23
76751;SHT31;65216;51.090;-115.352;2024-01-30T09:23:13;21.97;28.23
76751;SHT31;65216;51.090;-115.352;2024-01-30T09:25:39;21.96;28.23
76751;SHT31;65216;51.090;-115.352;2024-01-30T09:28:06;21.95;28.27
76751;SHT31;65216;51.090;-115.352;2024-01-30T09:30:34;21.96;28.24
76751;SHT31;65216;51.090;-115.352;2024-01-30T09:33:01;21.96;28.21
76751;SHT31;65216;51.090;-115.352;2024-01-30T09:35:28;21.96;28.20
76751;SHT31;65216;51.090;-115.352;2024-01-30T09:37:55;21.97;28.20
76751;SHT31;65216;51.090;-115.352;2024-01-30T09:40:23;21.96;28.20
76751;SHT31;65216;51.090;-115.352;2024-01-30T09:42:50;21.99;28.12
76751;SHT31;65216;51.090;-115.352;2024-01-30T09:45:18;22.00;28.10
76751;SHT31;65216;51.090;-115.352;2024-01-30T09:47:47;22.03;28.06
76751;SHT31;65216;51.090;-115.352;2024-01-30T09:50:14;22.01;28.01
76751;SHT31;65216;51.090;-115.352;2024-01-30T09:52:44;22.01;28.06
76751;SHT31;65216;51.090;-115.352;2024-01-30T09:55:13;21.99;28.08
76751;SHT31;65216;51.090;-115.352;2024-01-30T09:57:43;22.00;28.07
76751;SHT31;65216;51.090;-115.352;2024-01-30T10:00:10;22.00;28.03
76751;SHT31;65216;51.090;-115.352;2024-01-30T10:02:38;21.98;28.06
76751;SHT31;65216;51.090;-115.352;2024-01-30T10:05:07;21.99;28.06
76751;SHT31;65216;51.090;-115.352;2024-01-30T10:07:34;21.99;28.06
76751;SHT31;65216;51.090;-115.352;2024-01-30T10:10:02;21.99;28.04
76751;SHT31;65216;51.090;-115.352;2024-01-30T10:12:31;21.99;28.08
76751;SHT31;65216;51.090;-115.352;2024-01-30T10:14:57;21.99;28.08
76751;SHT31;65216;51.090;-115.352;2024-01-30T10:17:25;21.99;28.08
76751;SHT31;65216;51.090;-115.352;2024-01-30T10:19:53;22.00;28.09
76751;SHT31;65216;51.090;-115.352;2024-01-30T10:22:19;22.00;28.09
76751;SHT31;65216;51.090;-115.352;2024-01-30T10:24:46;22.00;28.09
76751;SHT31;65216;51.090;-115.352;2024-01-30T10:27:15;21.99;28.08
76751;SHT31;65216;51.090;-115.352;2024-01-30T10:29:42;21.99;28.10
76751;SHT31;65216;51.090;-115.352;2024-01-30T10:32:09;21.99;28.08
76751;SHT31;65216;51.090;-115.352;2024-01-30T10:34:36;21.98;28.10
76751;SHT31;65216;51.090;-115.352;2024-01-30T10:37:09;21.97;28.08
76751;SHT31;65216;51.090;-115.352;2024-01-30T10:39:44;21.98;28.10
76751;SHT31;65216;51.090;-115.352;2024-01-30T10:42:12;21.99;28.00
76751;SHT31;65216;51.090;-115.352;2024-01-30T10:47:32;21.98;27.96
76751;SHT31;65216;51.090;-115.352;2024-01-30T10:50:04;21.97;27.97
76751;SHT31;65216;51.090;-115.352;2024-01-30T10:52:34;21.95;27.95
76751;SHT31;65216;51.090;-115.352;2024-01-30T10:55:01;21.96;27.92
76751;SHT31;65216;51.090;-115.352;2024-01-30T10:57:37;21.97;27.92
76751;SHT31;65216;51.090;-115.352;2024-01-30T11:00:06;21.98;27.90
76751;SHT31;65216;51.090;-115.352;2024-01-30T11:02:38;21.99;27.87
76751;SHT31;65216;51.090;-115.352;2024-01-30T11:05:11;21.99;27.81
76751;SHT31;65216;51.090;-115.352;2024-01-30T11:07:41;21.98;27.79
76751;SHT31;65216;51.090;-115.352;2024-01-30T11:10:08;21.96;27.80
76751;SHT31;65216;51.090;-115.352;2024-01-30T11:12:40;21.96;27.79
76751;SHT31;65216;51.090;-115.352;2024-01-30T11:20:21;21.99;27.65
76751;SHT31;65216;51.090;-115.352;2024-01-30T11:22:52;22.00;27.60
76751;SHT31;65216;51.090;-115.352;2024-01-30T11:25:21;22.00;27.59
76751;SHT31;65216;51.090;-115.352;2024-01-30T11:27:51;22.02;27.56
76751;SHT31;65216;51.090;-115.352;2024-01-30T11:30:26;22.03;27.52
76751;SHT31;65216;51.090;-115.352;2024-01-30T11:35:34;22.04;27.50
76751;SHT31;65216;51.090;-115.352;2024-01-30T11:38:10;22.05;27.49
76751;SHT31;65216;51.090;-115.352;2024-01-30T11:40:40;22.04;27.51
76751;SHT31;65216;51.090;-115.352;2024-01-30T11:43:09;22.05;27.51
76751;SHT31;65216;51.090;-115.352;2024-01-30T11:45:39;22.06;27.50
76751;SHT31;65216;51.090;-115.352;2024-01-30T11:48:06;22.08;27.46
76751;SHT31;65216;51.090;-115.352;2024-01-30T11:50:35;22.09;27.40
76751;SHT31;65216;51.090;-115.352;2024-01-30T11:53:05;22.09;27.39
76751;SHT31;65216;51.090;-115.352;2024-01-30T11:55:33;22.11;27.35
76751;SHT31;65216;51.090;-115.352;2024-01-30T11:58:02;22.09;27.33
76751;SHT31;65216;51.090;-115.352;2024-01-30T12:00:30;22.08;27.33
76751;SHT31;65216;51.090;-115.352;2024-01-30T12:03:00;22.07;27.30
76751;SHT31;65216;51.090;-115.352;2024-01-30T12:05:30;22.06;27.30
76751;SHT31;65216;51.090;-115.352;2024-01-30T12:07:58;22.06;27.28
76751;SHT31;65216;51.090;-115.352;2024-01-30T12:10:25;22.05;27.23
76751;SHT31;65216;51.090;-115.352;2024-01-30T12:12:52;22.03;27.22
76751;SHT31;65216;51.090;-115.352;2024-01-30T12:15:21;22.03;27.20
76751;SHT31;65216;51.090;-115.352;2024-01-30T12:17:49;22.01;27.20
76751;SHT31;65216;51.090;-115.352;2024-01-30T12:20:18;22.00;27.20
76751;SHT31;65216;51.090;-115.352;2024-01-30T12:22:47;22.00;27.18
76751;SHT31;65216;51.090;-115.352;2024-01-30T12:27:45;21.96;27.18
76751;SHT31;65216;51.090;-115.352;2024-01-30T12:30:17;21.95;27.16
76751;SHT31;65216;51.090;-115.352;2024-01-30T12:32:47;21.95;27.12
76751;SHT31;65216;51.090;-115.352;2024-01-30T12:35:17;21.94;27.16
76751;SHT31;65216;51.090;-115.352;2024-01-30T12:37:46;21.95;27.12
76751;SHT31;65216;51.090;-115.352;2024-01-30T12:40:15;21.95;27.11
76751;SHT31;65216;51.090;-115.352;2024-01-30T12:42:45;21.95;27.10
76751;SHT31;65216;51.090;-115.352;2024-01-30T12:45:16;21.93;27.12
76751;SHT31;65216;51.090;-115.352;2024-01-30T12:47:46;21.93;27.10
76751;SHT31;65216;51.090;-115.352;2024-01-30T12:50:14;21.92;27.10
76751;SHT31;65216;51.090;-115.352;2024-01-30T12:52:42;21.92;27.09
76751;SHT31;65216;51.090;-115.352;2024-01-30T12:55:09;21.92;27.11
76751;SHT31;65216;51.090;-115.352;2024-01-30T12:57:37;21.93;27.09
76751;SHT31;65216;51.090;-115.352;2024-01-30T13:00:09;21.92;27.07
76751;SHT31;65216;51.090;-115.352;2024-01-30T13:02:36;21.91;27.10
76751;SHT31;65216;51.090;-115.352;2024-01-30T13:05:10;21.91;27.10
76751;SHT31;65216;51.090;-115.352;2024-01-30T13:07:39;21.92;27.10
76751;SHT31;65216;51.090;-115.352;2024-01-30T13:10:06;21.94;27.10
76751;SHT31;65216;51.090;-115.352;2024-01-30T13:12:33;21.95;27.10
76751;SHT31;65216;51.090;-115.352;2024-01-30T13:15:01;21.94;27.12
76751;SHT31;65216;51.090;-115.352;2024-01-30T13:17:30;21.94;27.11
76751;SHT31;65216;51.090;-115.352;2024-01-30T13:19:57;21.96;27.10
76751;SHT31;65216;51.090;-115.352;2024-01-30T13:22:25;21.98;27.12
76751;SHT31;65216;51.090;-115.352;2024-01-30T13:24:52;21.99;27.15
76751;SHT31;65216;51.090;-115.352;2024-01-30T13:27:18;22.00;27.15
76751;SHT31;65216;51.090;-115.352;2024-01-30T13:29:46;22.02;27.16
76751;SHT31;65216;51.090;-115.352;2024-01-30T13:32:13;22.01;27.16
76751;SHT31;65216;51.090;-115.352;2024-01-30T13:34:40;22.01;27.18
76751;SHT31;65216;51.090;-115.352;2024-01-30T13:37:07;22.00;27.22
76751;SHT31;65216;51.090;-115.352;2024-01-30T13:39:34;22.00;27.22
76751;SHT31;65216;51.090;-115.352;2024-01-30T13:42:01;22.00;27.29
76751;SHT31;65216;51.090;-115.352;2024-01-30T13:44:29;22.02;27.31
76751;SHT31;65216;51.090;-115.352;2024-01-30T13:46:55;22.01;27.32
76751;SHT31;65216;51.090;-115.352;2024-01-30T13:49:22;22.02;27.38
76751;SHT31;65216;51.090;-115.352;2024-01-30T13:51:49;22.00;27.39
76751;SHT31;65216;51.090;-115.352;2024-01-30T13:54:16;22.02;27.41
76751;SHT31;65216;51.090;-115.352;2024-01-30T13:56:45;22.02;27.41
76751;SHT31;65216;51.090;-115.352;2024-01-30T13:59:12;22.02;27.47
76751;SHT31;65216;51.090;-115.352;2024-01-30T14:01:39;22.03;27.51
76751;SHT31;65216;51.090;-115.352;2024-01-30T14:04:06;22.03;27.50
76751;SHT31;65216;51.090;-115.352;2024-01-30T14:06:33;22.02;27.50
76751;SHT31;65216;51.090;-115.352;2024-01-30T14:09:00;22.02;27.52
76751;SHT31;65216;51.090;-115.352;2024-01-30T14:11:26;22.00;27.55
76751;SHT31;65216;51.090;-115.352;2024-01-30T14:13:53;22.00;27.52
76751;SHT31;65216;51.090;-115.352;2024-01-30T14:16:23;22.00;27.50
76751;SHT31;65216;51.090;-115.352;2024-01-30T14:18:50;22.00;27.48
76751;SHT31;65216;51.090;-115.352;2024-01-30T14:21:17;22.00;27.50
76751;SHT31;65216;51.090;-115.352;2024-01-30T14:23:45;22.00;27.49
76751;SHT31;65216;51.090;-115.352;2024-01-30T14:26:12;21.99;27.43
76751;SHT31;65216;51.090;-115.352;2024-01-30T14:28:40;22.00;27.40
76751;SHT31;65216;51.090;-115.352;2024-01-30T14:31:09;22.01;27.39
76751;SHT31;65216;51.090;-115.352;2024-01-30T14:33:37;22.01;27.32
76751;SHT31;65216;51.090;-115.352;2024-01-30T14:36:04;22.02;27.31
76751;SHT31;65216;51.090;-115.352;2024-01-30T14:38:34;22.03;27.28
76751;SHT31;65216;51.090;-115.352;2024-01-30T14:41:01;22.01;27.24
76751;SHT31;65216;51.090;-115.352;2024-01-30T14:43:29;22.00;27.25
76751;SHT31;65216;51.090;-115.352;2024-01-30T14:45:56;22.01;27.21
76751;SHT31;65216;51.090;-115.352;2024-01-30T14:48:23;22.00;27.19
76751;SHT31;65216;51.090;-115.352;2024-01-30T14:50:58;22.01;27.16
76751;SHT31;65216;51.090;-115.352;2024-01-30T14:53:25;22.02;27.10
76751;SHT31;65216;51.090;-115.352;2024-01-30T14:55:52;22.00;27.10
76751;SHT31;65216;51.090;-115.352;2024-01-30T14:58:19;22.00;27.05
76751;SHT31;65216;51.090;-115.352;2024-01-30T15:00:47;22.00;27.03
76751;SHT31;65216;51.090;-115.352;2024-01-30T15:03:14;21.99;27.00
76751;SHT31;65216;51.090;-115.352;2024-01-30T15:05:40;22.00;26.92